Time;durP1;ratioP1;P1;durP2;ratioP2;P2;SDS_P1;SDS_P2;PMS_P1;PMS_P2;Temp;Humidity;BMP_temperature;BMP_pressure;BME280_temperature;BME280_humidity;BME280_pressure;Samples;Min_cycle;Max_cycle;Signal;HPM_P1;HPM_P2
2021/06/06 00:02:06;;;;;;;16.27;12.80;;;;;;;19.84;100.00;101054.31;5237923;28;20028;-79
2021/06/06 00:04:43;;;;;;;17.15;12.90;;;;;;;19.59;100.00;101048.91;5233645;28;20341;-79
2021/06/06 00:07:15;;;;;;;13.43;12.02;;;;;;;19.78;100.00;101048.56;5237125;28;20017;-79
2021/06/06 00:09:45;;;;;;;14.10;12.70;;;;;;;19.70;100.00;101046.41;5239069;28;20031;-79
2021/06/06 00:12:15;;;;;;;17.40;12.73;;;;;;;19.88;100.00;101044.34;5237294;28;20024;-79
2021/06/06 00:14:45;;;;;;;13.50;12.02;;;;;;;19.83;100.00;101044.66;5237332;28;20027;-78
2021/06/06 00:17:16;;;;;;;15.63;12.83;;;;;;;19.77;100.00;101046.88;5235482;28;20109;-77
2021/06/06 00:19:46;;;;;;;15.02;11.75;;;;;;;19.74;100.00;101047.91;5237433;28;20726;-79
2021/06/06 00:22:16;;;;;;;14.93;11.83;;;;;;;19.73;100.00;101043.56;5238344;28;20036;-79
2021/06/06 00:24:47;;;;;;;12.45;11.25;;;;;;;19.75;100.00;101044.31;5227331;28;20295;-78
2021/06/06 00:27:17;;;;;;;13.23;11.45;;;;;;;19.83;100.00;101047.31;5230281;28;20032;-79
2021/06/06 00:29:47;;;;;;;12.50;11.20;;;;;;;19.72;100.00;101041.84;5237125;28;20037;-79
2021/06/06 00:32:19;;;;;;;15.10;11.13;;;;;;;19.77;100.00;101038.91;5236180;28;20055;-77
2021/06/06 00:34:49;;;;;;;12.57;10.07;;;;;;;19.76;100.00;101046.00;5238055;28;20275;-79
2021/06/06 00:37:20;;;;;;;12.07;10.77;;;;;;;19.70;100.00;101035.81;5221209;28;20032;-79
2021/06/06 00:39:51;;;;;;;11.88;10.38;;;;;;;19.79;100.00;101040.50;5238797;28;20029;-77
2021/06/06 00:42:22;;;;;;;12.40;10.52;;;;;;;19.73;100.00;101038.25;5233756;28;20235;-79
2021/06/06 00:44:52;;;;;;;16.38;11.23;;;;;;;19.66;100.00;101038.75;5235278;28;20031;-78
2021/06/06 00:47:25;;;;;;;13.52;11.55;;;;;;;19.71;100.00;101039.28;5238867;28;20021;-78
2021/06/06 00:49:56;;;;;;;15.93;13.27;;;;;;;19.70;100.00;101038.47;5239302;28;20041;-79
2021/06/06 00:52:32;;;;;;;16.23;14.07;;;;;;;19.70;100.00;101038.47;5238070;28;20033;-78
2021/06/06 00:55:05;;;;;;;18.20;15.43;;;;;;;19.62;100.00;101035.44;5233965;28;20031;-79
2021/06/06 00:57:36;;;;;;;16.20;14.50;;;;;;;19.49;100.00;101039.88;5236564;28;20691;-79
2021/06/06 01:00:20;;;;;;;16.02;14.32;;;;;;;19.52;100.00;101037.00;5240144;28;20402;-78
2021/06/06 01:02:51;;;;;;;17.23;15.52;;;;;;;19.51;100.00;101035.31;5240828;28;20107;-79
2021/06/06 01:05:27;;;;;;;16.67;14.85;;;;;;;19.53;100.00;101033.41;5239266;28;20063;-80
2021/06/06 01:08:01;;;;;;;17.42;15.05;;;;;;;19.69;100.00;101043.84;5236598;28;20557;-79
2021/06/06 01:10:32;;;;;;;17.17;15.20;;;;;;;19.64;100.00;101041.50;5240648;28;20062;-79
2021/06/06 01:13:10;;;;;;;17.90;14.98;;;;;;;19.61;100.00;101033.75;5236081;28;20146;-78
2021/06/06 01:15:43;;;;;;;17.80;15.63;;;;;;;19.63;100.00;101042.44;5245020;22;20059;-82
2021/06/06 01:18:23;;;;;;;17.25;15.45;;;;;;;19.67;100.00;101043.09;5197968;28;20034;-82
2021/06/06 01:21:11;;;;;;;17.70;15.50;;;;;;;19.62;100.00;101040.75;5180384;28;20026;-82
2021/06/06 01:23:47;;;;;;;16.77;15.07;;;;;;;19.69;100.00;101043.84;5179421;28;20021;-81
2021/06/06 01:26:37;;;;;;;16.48;14.75;;;;;;;19.63;100.00;101039.78;5177171;28;20026;-82
2021/06/06 01:29:36;;;;;;;19.05;16.42;;;;;;;19.55;100.00;101041.25;5179600;28;20029;-81
2021/06/06 01:32:30;;;;;;;18.73;16.73;;;;;;;19.50;100.00;101036.25;5196585;28;20486;-82
2021/06/06 01:35:12;;;;;;;19.38;17.15;;;;;;;19.61;100.00;101041.69;5181840;28;20052;-82
2021/06/06 01:37:49;;;;;;;18.85;16.77;;;;;;;19.71;100.00;101053.41;5197625;28;20029;-82
2021/06/06 01:40:25;;;;;;;19.48;17.35;;;;;;;19.64;100.00;101049.44;5175671;28;20034;-82
2021/06/06 01:43:01;;;;;;;20.92;17.73;;;;;;;19.56;100.00;101043.81;5197176;28;20726;-81
2021/06/06 01:45:36;;;;;;;21.15;18.45;;;;;;;19.68;100.00;101043.00;5198227;28;20037;-82
2021/06/06 01:48:09;;;;;;;21.83;18.30;;;;;;;19.51;100.00;101045.91;5177890;28;20025;-81
2021/06/06 01:50:49;;;;;;;22.20;19.83;;;;;;;19.51;100.00;101045.91;5197447;28;20387;-81
2021/06/06 01:53:21;;;;;;;23.35;20.60;;;;;;;19.59;100.00;101048.91;5196256;28;20485;-82
2021/06/06 01:55:58;;;;;;;25.15;22.45;;;;;;;19.52;100.00;101042.31;5197810;28;20394;-81
2021/06/06 01:58:29;;;;;;;26.88;21.58;;;;;;;19.58;100.00;101047.19;5193416;28;20033;-81
2021/06/06 02:01:08;;;;;;;26.35;22.58;;;;;;;19.63;100.00;101046.91;5192672;28;20025;-82
2021/06/06 02:03:38;;;;;;;25.48;22.77;;;;;;;19.73;100.00;101042.69;5183582;28;20282;-82
2021/06/06 02:06:13;;;;;;;27.08;23.35;;;;;;;19.72;100.00;101043.66;5178339;28;20112;-80
2021/06/06 02:08:46;;;;;;;27.90;23.52;;;;;;;19.63;100.00;101053.06;5176681;28;20032;-82
2021/06/06 02:11:21;;;;;;;27.75;24.80;;;;;;;19.61;100.00;101043.50;5196058;28;20039;-81
2021/06/06 02:13:54;;;;;;;;;;;;;;;19.66;100.00;101052.88;5200192;28;20380;-81
2021/06/06 02:16:28;;;;;;;26.83;23.95;;;;;;;19.56;100.00;101043.81;5184394;28;19913;-82
2021/06/06 02:18:59;;;;;;;28.52;24.08;;;;;;;19.59;100.00;101045.41;5200720;28;20459;-81
2021/06/06 02:21:29;;;;;;;27.98;24.90;;;;;;;19.52;100.00;101047.63;5193908;28;20053;-81
2021/06/06 02:24:00;;;;;;;28.48;24.67;;;;;;;19.50;100.00;101049.50;5196124;28;20030;-81
2021/06/06 02:26:39;;;;;;;29.08;25.98;;;;;;;19.57;100.00;101050.81;5193590;28;20026;-81
2021/06/06 02:29:22;;;;;;;30.40;26.48;;;;;;;19.45;100.00;101048.94;5195376;28;20037;-81
2021/06/06 02:32:15;;;;;;;31.95;27.13;;;;;;;19.43;100.00;101047.34;5175047;28;20068;-81
2021/06/06 02:34:54;;;;;;;30.45;27.13;;;;;;;19.45;100.00;101046.28;5180169;28;20038;-82
2021/06/06 02:37:40;;;;;;;32.90;27.55;;;;;;;19.37;100.00;101048.59;5192152;28;20029;-82
2021/06/06 02:40:30;;;;;;;30.75;26.92;;;;;;;19.44;100.00;101052.53;5192205;28;20029;-82
2021/06/06 02:43:09;;;;;;;31.02;25.98;;;;;;;19.45;100.00;101040.97;5192310;28;20041;-81
2021/06/06 02:45:41;;;;;;;29.08;25.60;;;;;;;19.34;100.00;101051.44;5197515;28;20033;-81
2021/06/06 02:48:18;;;;;;;28.10;24.40;;;;;;;19.34;100.00;101046.16;5175077;28;20036;-82
2021/06/06 02:50:49;;;;;;;27.92;24.55;;;;;;;19.44;100.00;101044.59;5178779;28;20495;-83
2021/06/06 02:53:24;;;;;;;29.48;25.50;;;;;;;19.40;100.00;101050.19;5188156;28;20125;-81
2021/06/06 02:55:58;;;;;;;26.90;23.42;;;;;;;19.47;100.00;101047.03;5190678;28;20053;-82
2021/06/06 02:58:36;;;;;;;26.52;23.27;;;;;;;19.45;100.00;101048.94;5193662;28;20112;-82
2021/06/06 03:01:13;;;;;;;28.65;22.88;;;;;;;19.48;100.00;101050.56;5174317;28;20080;-82
2021/06/06 03:03:45;;;;;;;25.48;22.75;;;;;;;19.34;100.00;101054.09;5178854;28;20116;-81
2021/06/06 03:06:21;;;;;;;26.33;23.38;;;;;;;19.44;100.00;101057.84;5194738;28;20427;-82
2021/06/06 03:08:52;;;;;;;27.10;23.85;;;;;;;19.42;100.00;101051.78;5176507;28;20033;-82
2021/06/06 03:11:24;;;;;;;28.63;24.58;;;;;;;19.48;100.00;101056.69;5178687;28;20034;-81
2021/06/06 03:14:07;;;;;;;27.77;24.77;;;;;;;19.33;100.00;101055.06;5181318;28;20025;-82
2021/06/06 03:16:44;;;;;;;26.48;23.55;;;;;;;19.45;100.00;101059.53;5196979;28;20018;-83
2021/06/06 03:19:16;;;;;;;27.70;23.30;;;;;;;19.39;100.00;101062.59;5196676;28;20038;-82
2021/06/06 03:21:48;;;;;;;31.02;23.35;;;;;;;19.43;100.00;101058.78;5194570;28;20030;-80
2021/06/06 03:24:38;;;;;;;27.55;21.90;;;;;;;19.25;100.00;101057.31;5178268;28;20044;-82
2021/06/06 03:27:11;;;;;;;27.60;22.55;;;;;;;19.32;100.00;101058.66;5192304;28;20034;-82
2021/06/06 03:29:51;;;;;;;27.30;21.92;;;;;;;19.34;100.00;101058.53;5195581;28;20017;-83
2021/06/06 03:32:27;;;;;;;25.02;21.45;;;;;;;19.22;100.00;101059.31;5175890;28;20290;-82
2021/06/06 03:34:58;;;;;;;24.30;21.70;;;;;;;19.24;100.00;101065.38;5176804;28;20570;-82
2021/06/06 03:37:28;;;;;;;24.45;21.63;;;;;;;19.32;100.00;101074.56;5195920;28;20029;-81
2021/06/06 03:39:59;;;;;;;25.65;22.95;;;;;;;19.25;100.00;101067.94;5191429;28;20029;-82
2021/06/06 03:42:30;;;;;;;25.10;22.35;;;;;;;19.31;100.00;101064.88;5192483;28;20022;-82
2021/06/06 03:45:01;;;;;;;27.50;22.65;;;;;;;19.38;100.00;101071.50;5193625;28;20021;-83
2021/06/06 03:47:31;;;;;;;23.60;20.92;;;;;;;19.40;100.00;101076.69;5195997;28;20391;-82
2021/06/06 03:50:04;;;;;;;25.60;21.90;;;;;;;19.40;100.00;101068.75;5197224;28;20079;-82
2021/06/06 03:52:35;;;;;;;25.85;22.40;;;;;;;19.34;100.00;101077.97;5194285;28;20021;-82
2021/06/06 03:55:13;;;;;;;29.08;24.27;;;;;;;19.42;100.00;101086.25;5179485;28;20094;-83
2021/06/06 03:57:44;;;;;;;31.08;25.35;;;;;;;19.26;100.00;101088.19;5178482;28;20029;-83
2021/06/06 04:00:20;;;;;;;29.73;24.55;;;;;;;19.27;100.00;101084.56;5174634;28;20025;-82
2021/06/06 04:02:51;;;;;;;34.00;27.05;;;;;;;19.25;100.00;101085.63;5174584;28;20041;-83
2021/06/06 04:05:21;;;;;;;33.20;27.08;;;;;;;19.19;100.00;101078.91;5195987;28;20026;-82
2021/06/06 04:07:51;;;;;;;33.13;27.70;;;;;;;19.19;100.00;101080.72;5194222;28;20475;-83
2021/06/06 04:10:22;;;;;;;35.35;27.23;;;;;;;19.22;100.00;101075.19;5193943;28;20030;-82
2021/06/06 04:12:52;;;;;;;33.67;28.70;;;;;;;19.11;100.00;101085.63;5177958;28;20052;-81
2021/06/06 04:15:23;;;;;;;38.13;31.02;;;;;;;19.17;100.00;101087.91;5181144;28;20507;-81
2021/06/06 04:17:53;;;;;;;39.05;30.25;;;;;;;19.17;100.00;101090.56;5175725;28;20033;-82
2021/06/06 04:20:24;;;;;;;41.22;31.17;;;;;;;19.18;100.00;101090.47;5174660;28;20021;-83
2021/06/06 04:22:54;;;;;;;43.78;33.55;;;;;;;19.09;100.00;101091.00;5192878;28;20057;-81
2021/06/06 04:25:24;;;;;;;41.53;32.30;;;;;;;19.17;100.00;101087.91;5192022;28;20273;-82
2021/06/06 04:27:55;;;;;;;38.87;32.53;;;;;;;19.15;100.00;101095.94;5191478;28;20036;-83
2021/06/06 04:30:25;;;;;;;40.28;32.65;;;;;;;19.12;100.00;101090.81;5177258;28;20273;-81
2021/06/06 04:32:56;;;;;;;51.35;36.88;;;;;;;19.04;100.00;101097.53;5202396;28;20059;-80
2021/06/06 04:35:26;;;;;;;55.13;37.10;;;;;;;19.26;100.00;101088.19;5182729;28;20025;-80
2021/06/06 04:37:57;;;;;;;57.28;38.55;;;;;;;19.18;100.00;101087.81;5198253;28;20360;-80
2021/06/06 04:40:27;;;;;;;56.20;40.20;;;;;;;19.06;100.00;101080.59;5196012;28;20053;-81
2021/06/06 04:42:59;;;;;;;57.88;40.30;;;;;;;19.04;100.00;101084.28;5200276;28;20042;-80
2021/06/06 04:45:30;;;;;;;60.28;40.67;;;;;;;18.89;100.00;101083.44;5200464;28;20029;-80
2021/06/06 04:48:26;;;;;;;55.92;40.75;;;;;;;18.80;100.00;101081.34;5178791;28;20068;-80
2021/06/06 04:50:59;;;;;;;61.58;39.65;;;;;;;18.71;100.00;101082.84;5197216;28;20036;-80
2021/06/06 04:53:30;;;;;;;60.13;41.38;;;;;;;18.72;100.00;101073.97;5199152;28;20041;-81
2021/06/06 04:56:01;;;;;;;61.08;40.83;;;;;;;18.73;100.00;101083.63;5199193;28;20360;-80
2021/06/06 04:58:32;;;;;;;63.67;42.03;;;;;;;18.70;100.00;101078.50;5195936;28;20076;-80
2021/06/06 05:01:02;;;;;;;61.10;41.28;;;;;;;18.82;100.00;101086.56;5181392;28;20025;-81
2021/06/06 05:03:33;;;;;;;59.10;41.67;;;;;;;18.82;100.00;101092.72;5178409;28;20037;-80
2021/06/06 05:06:04;;;;;;;60.25;41.47;;;;;;;18.82;100.00;101087.41;5180814;28;20036;-81
2021/06/06 05:08:34;;;;;;;67.63;43.70;;;;;;;18.68;100.00;101085.69;5177153;28;20380;-81
2021/06/06 05:11:05;;;;;;;62.53;42.10;;;;;;;18.86;100.00;101090.72;5180985;28;20032;-81
2021/06/06 05:13:36;;;;;;;60.58;41.20;;;;;;;18.82;100.00;101091.84;5181638;28;20075;-81
2021/06/06 05:16:08;;;;;;;68.00;43.08;;;;;;;18.96;100.00;101089.22;5197690;28;20297;-81
2021/06/06 05:18:38;;;;;;;63.05;40.92;;;;;;;18.86;100.00;101088.06;5194886;28;20112;-81
2021/06/06 05:21:08;;;;;;;61.05;40.45;;;;;;;18.98;100.00;101096.13;5196859;28;20124;-80
2021/06/06 05:23:39;;;;;;;62.65;41.40;;;;;;;18.92;100.00;101085.88;5199346;28;20391;-81
2021/06/06 05:26:09;;;;;;;64.38;42.40;;;;;;;18.86;100.00;101093.34;5180958;28;20036;-80
2021/06/06 05:28:39;;;;;;;69.55;43.20;;;;;;;18.97;100.00;101088.25;5195882;28;20022;-80
2021/06/06 05:31:13;;;;;;;71.60;43.35;;;;;;;18.99;100.00;101094.31;5181348;28;20021;-81
2021/06/06 05:33:44;;;;;;;62.70;40.38;;;;;;;18.99;100.00;101089.00;5179386;28;20026;-82
2021/06/06 05:36:15;;;;;;;64.68;39.90;;;;;;;19.03;100.00;101090.53;5180742;28;20028;-79
2021/06/06 05:38:46;;;;;;;61.72;39.65;;;;;;;19.00;100.00;101093.38;5178128;28;20720;-80
2021/06/06 05:41:16;;;;;;;65.57;40.45;;;;;;;18.94;100.00;101094.59;5197936;28;20021;-80
2021/06/06 05:43:47;;;;;;;67.50;38.92;;;;;;;19.13;100.00;101095.16;5197349;28;20097;-80
2021/06/06 05:46:19;;;;;;;60.10;38.72;;;;;;;19.17;100.00;101087.91;5180248;28;20018;-81
2021/06/06 05:48:50;;;;;;;61.47;39.28;;;;;;;19.06;100.00;101088.53;5193958;28;20057;-80
2021/06/06 05:51:21;;;;;;;69.18;42.95;;;;;;;19.02;100.00;101092.34;5197268;28;20025;-80
2021/06/06 05:53:52;;;;;;;65.35;41.50;;;;;;;19.04;100.00;101093.09;5178502;28;20074;-80
2021/06/06 05:56:23;;;;;;;67.18;41.35;;;;;;;19.06;100.00;101093.84;5178304;28;20113;-80
2021/06/06 05:58:53;;;;;;;68.85;42.78;;;;;;;19.16;100.00;101100.31;5178284;28;20121;-80
2021/06/06 06:01:24;;;;;;;69.78;43.70;;;;;;;19.02;100.00;101095.00;5195298;28;20034;-81
2021/06/06 06:03:54;;;;;;;76.85;45.95;;;;;;;18.77;100.00;101113.31;5194396;28;20028;-81
2021/06/06 06:06:24;;;;;;;85.13;47.80;;;;;;;18.82;100.00;101116.56;5197897;28;20108;-80
2021/06/06 06:08:55;;;;;;;85.10;50.20;;;;;;;18.75;100.00;101115.22;5194482;28;20030;-79
2021/06/06 06:11:26;;;;;;;82.63;48.40;;;;;;;18.66;100.00;101117.56;5193292;28;20025;-80
2021/06/06 06:13:57;;;;;;;83.47;47.83;;;;;;;18.66;100.00;101127.31;5181538;28;20078;-80
2021/06/06 06:16:35;;;;;;;85.68;48.45;;;;;;;18.53;100.00;101131.63;5197010;28;20037;-80
2021/06/06 06:19:08;;;;;;;91.03;50.95;;;;;;;18.50;100.00;101131.81;5174814;28;20455;-80
2021/06/06 06:21:41;;;;;;;99.20;55.05;;;;;;;18.51;100.00;101134.34;5198779;28;20021;-80
2021/06/06 06:24:12;;;;;;;89.15;52.58;;;;;;;18.50;100.00;101137.94;5196447;28;20029;-81
2021/06/06 06:26:42;;;;;;;99.80;55.28;;;;;;;18.44;100.00;101142.75;5196316;28;20487;-80
2021/06/06 06:29:13;;;;;;;104.57;56.33;;;;;;;18.41;100.00;101143.81;5193876;28;20068;-79
2021/06/06 06:31:43;;;;;;;102.05;55.10;;;;;;;18.34;100.00;101153.03;5179211;28;20045;-79
2021/06/06 06:34:14;;;;;;;97.07;54.00;;;;;;;18.28;100.00;101152.53;5193917;28;20064;-81
2021/06/06 06:36:46;;;;;;;100.72;54.60;;;;;;;18.21;100.00;101149.34;5195523;28;20021;-81
2021/06/06 06:39:17;;;;;;;98.90;54.92;;;;;;;18.25;100.00;101157.97;5193865;28;20111;-80
2021/06/06 06:41:47;;;;;;;102.30;55.38;;;;;;;18.17;100.00;101158.41;5195763;28;20084;-80
2021/06/06 06:44:17;;;;;;;96.10;52.75;;;;;;;18.10;100.00;101158.84;5199664;28;20033;-80
2021/06/06 06:46:48;;;;;;;83.30;47.55;;;;;;;18.10;100.00;101169.41;5197642;28;20025;-80
2021/06/06 06:49:19;;;;;;;86.07;46.22;;;;;;;18.14;100.00;101171.81;5180159;28;20083;-80
2021/06/06 06:51:49;;;;;;;79.43;45.10;;;;;;;18.16;100.00;101167.28;5194849;28;20030;-81
2021/06/06 06:57:05;;;;;;;73.07;40.10;;;;;;;18.12;100.00;101170.19;5217156;22;20052;-81
2021/06/06 06:59:37;;;;;;;75.38;39.22;;;;;;;18.12;100.00;101186.06;5201648;28;20280;-81
2021/06/06 07:02:07;;;;;;;67.75;38.22;;;;;;;18.13;100.00;101179.81;5181948;28;20034;-81
2021/06/06 07:04:37;;;;;;;66.75;37.65;;;;;;;18.26;100.00;101173.75;5199106;28;20030;-81
2021/06/06 07:07:08;;;;;;;68.45;37.45;;;;;;;18.26;100.00;101176.41;5201575;28;20013;-81
2021/06/06 07:09:39;;;;;;;69.53;36.60;;;;;;;18.13;100.00;101171.88;5195476;28;20470;-81
2021/06/06 07:12:11;;;;;;;63.95;37.53;;;;;;;17.97;100.00;101177.19;5178136;28;20026;-81
2021/06/06 07:14:41;;;;;;;72.30;38.92;;;;;;;18.10;100.00;101180.88;5178460;28;20535;-80
2021/06/06 07:17:11;;;;;;;72.57;39.43;;;;;;;18.07;100.00;101177.53;5201836;28;20029;-81
2021/06/06 07:19:41;;;;;;;70.40;39.45;;;;;;;18.10;100.00;101180.00;5194242;28;20280;-81
2021/06/06 07:22:12;;;;;;;71.80;38.60;;;;;;;18.07;100.00;101180.19;5179859;28;20472;-81
2021/06/06 07:24:42;;;;;;;67.57;38.35;;;;;;;18.16;100.00;101182.31;5177477;28;20745;-81
2021/06/06 07:27:13;;;;;;;73.00;38.70;;;;;;;18.33;100.00;101180.44;5197994;28;20022;-81
2021/06/06 07:29:45;;;;;;;74.20;38.63;;;;;;;18.19;100.00;101184.78;5197850;28;20026;-80
2021/06/06 07:32:15;;;;;;;70.20;39.20;;;;;;;18.35;100.00;101185.66;5196407;28;20435;-81
2021/06/06 07:34:47;;;;;;;70.95;38.40;;;;;;;18.27;100.00;101182.53;5196603;28;20090;-81
2021/06/06 07:37:17;;;;;;;71.05;38.50;;;;;;;18.24;100.00;101188.00;5195202;28;20384;-80
2021/06/06 07:39:48;;;;;;;72.70;39.38;;;;;;;18.42;100.00;101179.03;5179260;28;20182;-80
2021/06/06 07:42:18;;;;;;;71.23;37.53;;;;;;;18.34;100.00;101181.31;5195683;28;20112;-80
2021/06/06 07:44:48;;;;;;;67.70;37.43;;;;;;;18.40;100.00;101181.81;5197016;28;20305;-81
2021/06/06 07:47:18;;;;;;;70.50;38.50;;;;;;;18.40;100.00;101171.22;5182197;28;20272;-81
2021/06/06 07:49:49;;;;;;;68.03;36.80;;;;;;;18.45;100.00;101179.72;5195509;28;20309;-81
2021/06/06 07:52:19;;;;;;;68.70;36.63;;;;;;;18.58;100.00;101177.22;5180528;28;20022;-81
2021/06/06 07:54:49;;;;;;;64.78;35.95;;;;;;;18.70;100.00;101176.50;5179571;28;20038;-81
2021/06/06 07:57:20;;;;;;;60.22;34.63;;;;;;;18.64;100.00;101183.00;5178728;28;20024;-81
2021/06/06 07:59:50;;;;;;;65.78;36.33;;;;;;;18.54;100.00;101176.53;5181057;28;20034;-80
2021/06/06 08:02:20;;;;;;;61.00;35.50;;;;;;;18.39;100.00;101176.59;5192391;28;20099;-81
2021/06/06 08:04:51;;;;;;;64.60;36.55;;;;;;;18.46;100.00;101176.13;5196697;28;20279;-81
2021/06/06 08:07:22;;;;;;;65.60;35.40;;;;;;;18.42;100.00;101173.75;5195992;28;20634;-80
2021/06/06 08:09:52;;;;;;;64.43;34.95;;;;;;;18.26;100.00;101178.19;5198145;28;20033;-81
2021/06/06 08:12:26;;;;;;;61.47;35.07;;;;;;;18.31;100.00;101186.78;5193008;28;20124;-81
2021/06/06 08:14:56;;;;;;;64.60;36.33;;;;;;;18.46;100.00;101183.22;5194692;28;20333;-80
2021/06/06 08:17:26;;;;;;;65.63;36.50;;;;;;;18.35;100.00;101180.34;5195155;28;20470;-81
2021/06/06 08:19:56;;;;;;;63.00;36.13;;;;;;;18.48;100.00;101179.56;5197217;28;20292;-81
2021/06/06 08:22:27;;;;;;;62.58;36.72;;;;;;;18.36;100.00;101176.78;5195434;28;20040;-80
2021/06/06 08:24:58;;;;;;;64.57;36.78;;;;;;;18.50;100.00;101179.47;5197059;28;20506;-79
2021/06/06 08:27:29;;;;;;;64.55;36.17;;;;;;;18.53;100.00;101174.81;5186290;28;20021;-80
2021/06/06 08:29:59;;;;;;;66.85;38.65;;;;;;;18.31;100.00;101179.66;5197958;28;20087;-80
2021/06/06 08:32:29;;;;;;;64.33;38.63;;;;;;;18.47;100.00;101179.63;5180127;28;20131;-81
2021/06/06 08:34:59;;;;;;;65.83;38.90;;;;;;;18.56;100.00;101189.69;5199098;28;20272;-80
2021/06/06 08:37:30;;;;;;;65.60;38.10;;;;;;;18.48;100.00;101181.34;5202077;28;20300;-81
2021/06/06 08:40:00;;;;;;;62.13;35.65;;;;;;;18.67;100.00;101181.97;5197676;28;20269;-80
2021/06/06 08:42:31;;;;;;;62.72;37.97;;;;;;;18.83;100.00;101178.31;5182881;28;20025;-81
2021/06/06 08:45:17;;;;;;;59.05;37.33;;;;;;;18.88;100.00;101182.41;5180432;28;20075;-80
2021/06/06 08:47:49;;;;;;;61.30;37.53;;;;;;;18.76;100.00;101180.47;5190224;28;20037;-80
2021/06/06 08:50:24;;;;;;;61.88;36.15;;;;;;;18.81;100.00;101178.44;5180584;28;20693;-80
2021/06/06 08:53:00;;;;;;;59.85;36.72;;;;;;;18.75;100.00;101186.72;5176660;28;20030;-81
2021/06/06 08:56:18;;;;;;;55.55;35.58;;;;;;;18.58;100.00;101193.09;5199344;28;20021;-80
2021/06/06 08:59:15;;;;;;;59.38;35.58;;;;;;;18.68;100.00;101191.63;5200482;28;20045;-80
2021/06/06 09:01:53;;;;;;;57.15;35.15;;;;;;;18.68;100.00;101188.97;5185336;28;20422;-80
2021/06/06 09:04:30;;;;;;;61.55;37.53;;;;;;;18.84;100.00;101191.50;5197207;28;20053;-81
2021/06/06 09:07:16;;;;;;;61.42;37.35;;;;;;;18.61;100.00;101204.38;5199595;28;20086;-80
2021/06/06 09:09:50;;;;;;;62.72;37.45;;;;;;;18.64;100.00;101195.38;5180862;28;20373;-80
2021/06/06 09:12:25;;;;;;;60.70;36.45;;;;;;;18.75;100.00;101204.44;5180172;28;20030;-80
2021/06/06 09:14:56;;;;;;;54.72;36.33;;;;;;;18.74;100.00;101208.84;5179733;28;20029;-81
2021/06/06 09:17:49;;;;;;;56.20;35.42;;;;;;;18.72;100.00;101198.44;5179717;28;20025;-80
2021/06/06 09:20:30;;;;;;;55.20;34.40;;;;;;;18.64;100.00;101209.50;5199685;28;20539;-80
2021/06/06 09:23:08;;;;;;;51.08;33.95;;;;;;;18.76;100.00;101203.47;5183255;28;20646;-81
2021/06/06 09:25:41;;;;;;;51.50;32.70;;;;;;;18.70;100.00;101209.13;5181825;28;20376;-80
2021/06/06 09:28:18;;;;;;;49.78;33.55;;;;;;;18.87;100.00;101201.91;5197997;28;20030;-81
2021/06/06 09:31:19;;;;;;;47.78;32.17;;;;;;;18.92;100.00;101207.75;5202507;28;20036;-81
2021/06/06 09:33:52;;;;;;;45.33;30.30;;;;;;;18.87;100.00;101215.13;5199839;28;20022;-81
2021/06/06 09:36:32;;;;;;;45.15;29.98;;;;;;;18.87;100.00;101215.13;5180745;28;20030;-81
2021/06/06 09:39:02;;;;;;;45.00;29.85;;;;;;;18.96;100.00;101206.63;5181231;28;20030;-81
2021/06/06 09:41:37;;;;;;;42.40;30.03;;;;;;;18.93;100.00;101212.13;5178620;28;20483;-81
2021/06/06 09:44:19;;;;;;;45.38;30.77;;;;;;;18.94;100.00;101212.97;5194903;28;20272;-82
2021/06/06 09:46:51;;;;;;;42.78;29.90;;;;;;;19.13;100.00;101211.75;5200378;28;20026;-81
2021/06/06 09:49:34;;;;;;;48.83;30.48;;;;;;;19.14;100.00;101216.13;5179579;28;20163;-81
2021/06/06 09:52:41;;;;;;;44.78;29.88;;;;;;;19.06;100.00;101220.19;5178886;28;20196;-82
2021/06/06 09:55:15;;;;;;;43.42;29.67;;;;;;;19.14;100.00;101223.22;5139457;28;20034;-82
2021/06/06 09:57:47;;;;;;;39.45;27.75;;;;;;;19.06;100.00;101229.00;5193664;28;20029;-82
2021/06/06 10:00:25;;;;;;;40.83;27.88;;;;;;;19.13;100.00;101232.97;5182463;28;20028;-82
2021/06/06 10:03:05;;;;;;;39.15;28.13;;;;;;;19.12;100.00;101228.63;5192007;28;20547;-82
2021/06/06 10:05:41;;;;;;;43.00;28.65;;;;;;;19.06;100.00;101234.28;5197414;28;20033;-81
2021/06/06 10:08:18;;;;;;;38.20;28.13;;;;;;;19.10;100.00;101235.81;5198757;28;20443;-82
2021/06/06 10:10:52;;;;;;;40.75;29.52;;;;;;;19.03;100.00;101242.44;5180207;28;20646;-82
2021/06/06 10:13:31;;;;;;;40.90;28.38;;;;;;;18.87;100.00;101241.63;5182703;28;20018;-83
2021/06/06 10:16:07;;;;;;;42.63;28.33;;;;;;;18.74;100.00;101245.94;5201967;28;20049;-82
2021/06/06 10:18:53;;;;;;;;;;;;;;;18.65;100.00;101242.13;5193827;28;20033;-82
2021/06/06 10:21:30;;;;;;;38.97;27.48;;;;;;;18.70;100.00;101245.34;5175810;28;19921;-81
2021/06/06 10:24:22;;;;;;;36.97;27.60;;;;;;;18.75;100.00;101245.00;5195053;28;20033;-81
2021/06/06 10:27:21;;;;;;;37.00;26.98;;;;;;;19.06;100.00;101252.84;5193408;28;20032;-80
2021/06/06 10:30:00;;;;;;;38.72;26.83;;;;;;;19.08;100.00;101248.31;5194527;28;20394;-81
2021/06/06 10:32:36;;;;;;;37.30;27.10;;;;;;;18.88;100.00;101253.06;5193028;28;20029;-81
2021/06/06 10:35:18;;;;;;;36.35;27.00;;;;;;;19.22;100.00;101239.53;5197507;28;20054;-81
2021/06/06 10:37:55;;;;;;;34.75;24.77;;;;;;;19.26;100.00;101244.56;5194948;28;20052;-81
2021/06/06 10:40:37;;;;;;;32.13;24.48;;;;;;;19.07;100.00;101245.75;5172664;28;20021;-81
2021/06/06 10:43:26;;;;;;;32.70;24.77;;;;;;;19.25;100.00;101244.69;5191009;28;20053;-81
2021/06/06 10:46:07;;;;;;;32.33;23.17;;;;;;;19.33;100.00;101248.59;5180299;28;20029;-81
2021/06/06 10:48:50;;;;;;;33.15;23.42;;;;;;;19.33;100.00;101248.59;5176973;28;20036;-81
2021/06/06 10:51:36;;;;;;;30.42;22.63;;;;;;;19.35;100.00;101252.00;5192266;28;20084;-81
2021/06/06 10:54:23;;;;;;;27.60;21.60;;;;;;;19.20;100.00;101252.91;5198810;28;20033;-81
2021/06/06 10:56:57;;;;;;;27.90;21.98;;;;;;;19.19;100.00;101255.63;5177241;28;20026;-81
2021/06/06 10:59:36;;;;;;;32.05;21.38;;;;;;;19.19;100.00;101266.25;5198899;28;20045;-80
2021/06/06 11:02:10;;;;;;;28.52;22.17;;;;;;;19.25;100.00;101253.47;5195903;28;20498;-81
2021/06/06 11:04:52;;;;;;;25.60;20.05;;;;;;;19.26;100.00;101247.22;5195213;28;20601;-80
2021/06/06 11:07:31;;;;;;;25.17;20.02;;;;;;;19.30;100.00;101251.41;5176154;28;20032;-81
2021/06/06 11:10:07;;;;;;;23.75;19.63;;;;;;;19.24;100.00;101258.88;5175567;28;20029;-80
2021/06/06 11:12:38;;;;;;;28.73;21.48;;;;;;;19.03;100.00;101268.94;5179835;28;20026;-80
2021/06/06 11:15:20;;;;;;;25.52;20.48;;;;;;;19.09;100.00;101260.59;5177087;28;20048;-80
2021/06/06 11:17:50;;;;;;;26.05;21.15;;;;;;;19.09;100.00;101257.97;5169913;28;20034;-80
2021/06/06 11:20:23;;;;;;;27.80;20.08;;;;;;;19.29;100.00;101251.50;5174750;28;20044;-80
2021/06/06 11:22:55;;;;;;;25.98;19.70;;;;;;;19.22;100.00;101253.66;5195671;28;20506;-80
2021/06/06 11:25:30;;;;;;;26.70;21.45;;;;;;;19.38;100.00;101258.88;5177409;28;20029;-80
2021/06/06 11:28:04;;;;;;;24.13;19.58;;;;;;;19.21;100.00;101259.91;5192284;28;20056;-80
2021/06/06 11:30:40;;;;;;;26.60;20.63;;;;;;;19.24;100.00;101253.59;5173614;28;20423;-80
2021/06/06 11:33:13;;;;;;;27.45;21.05;;;;;;;19.30;100.00;101246.09;5197853;28;20329;-79
2021/06/06 11:35:48;;;;;;;25.80;19.77;;;;;;;19.35;100.00;101252.00;5192013;28;20033;-80
2021/06/06 11:38:25;;;;;;;25.70;21.10;;;;;;;19.39;100.00;101253.50;5176208;28;20022;-80